createdAt,value
2022-10-18T00:05:20.292Z,9.75
2022-10-18T00:09:19.336Z,8.50
2022-10-18T00:17:20.679Z,8.60
2022-10-18T00:21:22.291Z,8.73
2022-10-18T00:25:22.013Z,9.63
2022-10-18T00:29:21.827Z,8.35
2022-10-18T00:33:23.705Z,10.30
2022-10-18T00:37:23.378Z,8.70
2022-10-18T00:45:25.034Z,7.53
2022-10-18T00:49:30.671Z,7.30
2022-10-18T00:53:30.341Z,9.48
2022-10-18T01:01:29.628Z,6.35
2022-10-18T01:05:31.407Z,7.88
2022-10-18T01:09:38.772Z,7.43
2022-10-18T01:13:49.321Z,9.60
2022-10-18T01:17:58.001Z,8.40
2022-10-18T01:22:06.919Z,8.02
2022-10-18T01:26:26.347Z,8.32
2022-10-18T01:30:49.630Z,12.90
2022-10-18T01:34:53.407Z,13.05
2022-10-18T01:38:57.083Z,12.02
2022-10-18T01:42:57.146Z,12.77
2022-10-18T01:46:59.998Z,14.32
2022-10-18T01:50:59.713Z,14.02
2022-10-18T01:59:10.654Z,13.63
2022-10-18T02:03:18.543Z,15.07
2022-10-18T02:07:30.060Z,16.60
2022-10-18T02:11:32.315Z,16.17
2022-10-18T02:15:36.573Z,14.77
2022-10-18T02:19:43.561Z,13.38
2022-10-18T02:23:45.326Z,12.35
2022-10-18T02:27:44.582Z,11.85
2022-10-18T02:31:47.145Z,10.55
2022-10-18T02:35:54.047Z,10.05
2022-10-18T02:39:53.949Z,8.88
2022-10-18T02:43:53.803Z,9.23
2022-10-18T02:47:53.480Z,9.38
2022-10-18T02:55:54.561Z,9.43
2022-10-18T03:03:53.436Z,12.23
2022-10-18T03:11:54.404Z,12.52
2022-10-18T03:15:53.962Z,9.32
2022-10-18T03:24:04.167Z,10.65
2022-10-18T03:28:03.720Z,10.00
2022-10-18T03:32:03.281Z,9.30
2022-10-18T03:40:04.382Z,7.85
2022-10-18T03:44:03.939Z,8.88
2022-10-18T03:48:03.649Z,8.63
2022-10-18T03:56:05.516Z,7.00
2022-10-18T04:00:06.676Z,8.48
2022-10-18T04:04:11.058Z,10.43
2022-10-18T04:08:10.972Z,12.48
2022-10-18T04:12:13.042Z,15.82
2022-10-18T04:16:14.918Z,21.83
2022-10-18T04:20:14.786Z,22.35
2022-10-18T04:24:14.835Z,20.00
2022-10-18T04:28:18.873Z,22.35
2022-10-18T04:32:20.976Z,19.45
2022-10-18T04:36:22.583Z,18.90
2022-10-18T04:40:26.292Z,19.13
2022-10-18T04:44:29.327Z,17.38
2022-10-18T04:48:29.531Z,20.20
2022-10-18T04:52:33.438Z,19.35
2022-10-18T04:56:37.965Z,17.30
2022-10-18T05:00:40.586Z,16.20
2022-10-18T05:04:42.696Z,17.98
2022-10-18T05:08:44.128Z,18.45
2022-10-18T05:12:44.864Z,19.25
2022-10-18T05:16:47.305Z,19.70
2022-10-18T05:20:47.253Z,24.45
2022-10-18T05:24:50.381Z,24.67
2022-10-18T05:28:51.754Z,20.15
2022-10-18T05:32:59.640Z,14.93
2022-10-18T05:37:28.241Z,15.20
2022-10-18T05:41:33.067Z,14.35
2022-10-18T05:45:36.825Z,10.95
2022-10-18T05:50:05.136Z,10.90
2022-10-18T05:54:22.096Z,10.98
2022-10-18T05:58:27.233Z,10.32
2022-10-18T06:02:30.807Z,11.05
2022-10-18T06:06:45.113Z,10.73
2022-10-18T06:10:52.118Z,12.27
2022-10-18T06:15:05.473Z,14.73
2022-10-18T06:19:06.303Z,14.90
2022-10-18T06:23:09.701Z,15.80
2022-10-18T06:27:20.192Z,12.68
2022-10-18T06:31:24.106Z,14.05
2022-10-18T06:35:38.082Z,11.73
2022-10-18T06:39:53.993Z,11.85
2022-10-18T06:44:44.667Z,11.50
2022-10-18T06:50:12.074Z,11.70
2022-10-18T07:59:46.946Z,6.95
2022-10-18T08:00:41.736Z,6.47
2022-10-18T08:10:45.757Z,7.93
2022-10-18T08:22:10.659Z,7.80
2022-10-18T08:27:18.307Z,6.95
2022-10-18T08:34:22.426Z,7.03
2022-10-18T08:48:50.345Z,9.48
2022-10-18T08:53:15.766Z,9.43
2022-10-18T08:57:18.066Z,10.60
2022-10-18T09:01:38.348Z,8.73
2022-10-18T09:06:04.226Z,7.68
2022-10-18T09:10:20.723Z,8.55
2022-10-18T09:15:07.938Z,8.52
2022-10-18T09:19:27.233Z,9.57
2022-10-18T09:23:40.265Z,8.43
2022-10-18T09:27:50.926Z,8.00
2022-10-18T09:31:58.127Z,7.75
2022-10-18T09:36:02.755Z,7.93
2022-10-18T09:40:09.024Z,8.30
2022-10-18T09:44:17.852Z,9.52
2022-10-18T09:48:24.179Z,8.17
2022-10-18T09:53:17.467Z,8.25
2022-10-18T09:57:54.809Z,8.50
2022-10-18T10:02:01.894Z,8.52
2022-10-18T10:06:40.318Z,7.68
2022-10-18T10:11:54.186Z,8.85
2022-10-18T10:16:18.185Z,8.50
2022-10-18T10:20:38.606Z,10.10
2022-10-18T10:25:03.437Z,8.07
2022-10-18T10:29:13.251Z,7.25
2022-10-18T10:45:03.590Z,4.97
2022-10-18T10:49:39.574Z,4.93
2022-10-18T10:54:12.922Z,6.55
2022-10-18T10:58:31.430Z,4.93
2022-10-18T11:03:10.829Z,6.65
2022-10-18T11:07:54.892Z,6.10
2022-10-18T11:12:06.212Z,5.15
2022-10-18T11:16:12.819Z,6.03
2022-10-18T11:20:33.978Z,6.53
2022-10-18T11:24:39.352Z,6.00
2022-10-18T11:29:26.820Z,5.68
2022-10-18T11:34:15.798Z,5.05
2022-10-18T11:38:40.671Z,6.53
2022-10-18T11:42:54.677Z,4.75
2022-10-18T11:47:09.688Z,5.85
2022-10-18T11:51:50.300Z,5.50
2022-10-18T11:56:19.423Z,5.38
2022-10-18T12:00:56.070Z,6.05
2022-10-18T12:09:35.255Z,4.93
2022-10-18T12:13:48.994Z,4.70
2022-10-18T12:17:57.285Z,5.07
2022-10-18T12:21:59.842Z,4.80
2022-10-18T12:26:05.399Z,4.53
2022-10-18T12:30:26.007Z,4.15
2022-10-18T12:39:43.335Z,4.43
2022-10-18T12:43:57.648Z,4.10
2022-10-18T12:48:04.745Z,4.43
2022-10-18T12:52:11.051Z,4.28
2022-10-18T12:56:42.971Z,4.93
2022-10-18T13:00:55.220Z,4.45
2022-10-18T13:04:56.749Z,4.10
2022-10-18T13:09:23.363Z,4.10
2022-10-18T13:13:55.945Z,4.60
2022-10-18T13:18:01.756Z,3.60
2022-10-18T13:22:21.243Z,4.68
2022-10-18T13:26:35.988Z,3.40
2022-10-18T13:30:51.270Z,5.38
2022-10-18T13:34:54.673Z,3.38
2022-10-18T13:39:10.204Z,3.65
2022-10-18T13:44:15.530Z,3.53
2022-10-18T13:48:51.928Z,3.88
2022-10-18T13:53:24.769Z,4.30
2022-10-18T13:57:43.727Z,4.90
2022-10-18T14:02:06.523Z,4.85
2022-10-18T14:06:11.633Z,6.72
2022-10-18T14:10:43.281Z,7.05
2022-10-18T14:14:57.875Z,4.63
2022-10-18T14:19:10.334Z,5.40
2022-10-18T14:23:16.465Z,3.58
2022-10-18T14:27:20.014Z,4.18
2022-10-18T14:31:22.122Z,3.80
2022-10-18T14:35:33.910Z,3.67
2022-10-18T14:39:33.713Z,4.50
2022-10-18T14:43:33.337Z,4.32
2022-10-18T14:47:36.003Z,5.28
2022-10-18T14:51:41.008Z,5.15
2022-10-18T14:55:42.695Z,4.45
2022-10-18T14:59:48.869Z,5.75
2022-10-18T15:03:49.337Z,9.25
2022-10-18T15:07:53.186Z,13.63
2022-10-18T15:11:54.514Z,13.43
2022-10-18T15:15:55.114Z,8.40
2022-10-18T15:20:03.288Z,5.50
2022-10-18T15:24:30.454Z,7.65
2022-10-18T15:28:32.181Z,5.85
2022-10-18T15:32:33.559Z,6.18
2022-10-18T15:36:34.997Z,7.80
2022-10-18T15:40:44.511Z,8.80
2022-10-18T15:44:50.667Z,8.73
2022-10-18T15:48:50.304Z,6.88
2022-10-18T15:52:49.931Z,8.02
2022-10-18T15:56:51.704Z,7.22
2022-10-18T16:00:52.634Z,8.63
2022-10-18T16:04:52.276Z,11.18
2022-10-18T16:08:53.392Z,9.23
2022-10-18T16:16:56.297Z,16.50
2022-10-18T16:20:56.225Z,40.72
2022-10-18T16:24:56.176Z,41.92
2022-10-18T16:28:58.989Z,29.92
2022-10-18T16:32:58.630Z,28.45
2022-10-18T16:36:57.730Z,34.13
2022-10-18T16:40:57.427Z,46.20
2022-10-18T16:44:59.121Z,49.88
2022-10-18T16:48:59.546Z,61.72
2022-10-18T16:52:59.001Z,54.25
2022-10-18T16:56:58.532Z,25.33
2022-10-18T17:01:02.909Z,24.70
2022-10-18T17:05:05.547Z,25.40
2022-10-18T17:09:05.521Z,25.98
2022-10-18T17:17:11.926Z,21.13
2022-10-18T17:21:10.932Z,20.30
2022-10-18T17:25:10.860Z,24.25
2022-10-18T17:33:11.982Z,27.17
2022-10-18T17:37:11.550Z,25.23
2022-10-18T17:41:12.690Z,22.95
2022-10-18T17:45:13.223Z,26.35
2022-10-18T17:49:16.391Z,21.48
2022-10-18T17:53:18.008Z,18.98
2022-10-18T17:57:17.917Z,16.70
2022-10-18T18:01:19.762Z,18.50
2022-10-18T18:05:21.521Z,15.77
2022-10-18T18:09:21.512Z,15.98
2022-10-18T18:13:21.128Z,20.70
2022-10-18T18:17:28.730Z,19.30
2022-10-18T18:21:36.322Z,17.92
2022-10-18T18:25:35.913Z,16.83
2022-10-18T18:29:34.894Z,14.70
2022-10-18T18:37:35.595Z,18.27
2022-10-18T18:41:36.411Z,18.88
2022-10-18T18:45:35.878Z,22.08
2022-10-18T18:53:38.035Z,16.50
2022-10-18T18:57:37.576Z,19.10
2022-10-18T19:05:38.616Z,16.08
2022-10-18T19:09:41.956Z,47.92
2022-10-18T19:13:41.690Z,33.90
2022-10-18T19:17:41.272Z,54.20
2022-10-18T19:21:42.620Z,61.38
2022-10-18T19:25:44.376Z,71.75
2022-10-18T19:29:45.678Z,59.05
2022-10-18T19:33:48.330Z,41.20
2022-10-18T19:37:58.286Z,33.33
2022-10-18T19:42:02.931Z,27.67
2022-10-18T19:46:04.631Z,25.17
2022-10-18T19:50:04.237Z,21.23
2022-10-18T19:54:04.010Z,20.48
2022-10-18T19:58:05.766Z,23.88
2022-10-18T20:02:05.794Z,24.10
2022-10-18T20:06:05.829Z,29.45
2022-10-18T20:10:05.774Z,26.77
2022-10-18T20:14:09.241Z,25.88
2022-10-18T20:18:09.151Z,26.77
2022-10-18T20:22:08.715Z,26.77
2022-10-18T20:34:14.068Z,19.52
2022-10-18T20:38:13.788Z,18.38
2022-10-18T20:42:13.313Z,20.20
2022-10-18T20:50:14.337Z,27.75
2022-10-18T20:58:13.922Z,19.98
2022-10-18T21:02:15.840Z,23.92
2022-10-18T21:06:17.251Z,25.88
2022-10-18T21:10:16.757Z,24.60
2022-10-18T21:22:18.230Z,23.80
2022-10-18T21:26:18.937Z,25.08
2022-10-18T21:30:18.541Z,22.30
2022-10-18T21:38:19.785Z,21.80
2022-10-18T21:46:20.422Z,21.63
2022-10-18T21:50:22.058Z,19.00
2022-10-18T21:54:21.704Z,19.60
2022-10-18T21:58:21.710Z,19.77
2022-10-18T22:02:21.529Z,19.67
2022-10-18T22:06:24.739Z,19.92
2022-10-18T22:10:24.507Z,17.52
2022-10-18T22:14:24.269Z,18.10
2022-10-18T22:18:24.631Z,19.58
2022-10-18T22:22:26.609Z,19.13
2022-10-18T22:26:28.065Z,23.52
2022-10-18T22:30:27.821Z,22.23
2022-10-18T22:34:29.275Z,20.65
2022-10-18T22:38:34.933Z,24.30
2022-10-18T22:46:38.885Z,21.13
2022-10-18T22:54:39.740Z,20.73
2022-10-18T22:58:40.600Z,22.58
2022-10-18T23:02:39.659Z,19.38
2022-10-18T23:10:41.553Z,17.35
2022-10-18T23:14:40.555Z,18.20
2022-10-18T23:22:44.327Z,15.93
2022-10-18T23:30:45.305Z,15.68
2022-10-18T23:38:44.034Z,15.98
2022-10-18T23:42:45.713Z,16.63
2022-10-18T23:46:45.501Z,15.98
2022-10-18T23:50:45.367Z,16.80
2022-10-18T23:58:51.458Z,15.18
